sensor_id;sensor_type;location;lat;lon;timestamp;pressure;altitude;pressure_sealevel;temperature;humidity
22743;BME280;11538;48.884;8.696;2023-02-10T00:01:14;100652.88;;;-1.43;89.93
22743;BME280;11538;48.884;8.696;2023-02-10T00:03:42;100642.09;;;-1.50;89.86
22743;BME280;11538;48.884;8.696;2023-02-10T00:06:10;100641.06;;;-1.49;90.36
22743;BME280;11538;48.884;8.696;2023-02-10T00:08:37;100640.06;;;-1.48;90.23
22743;BME280;11538;48.884;8.696;2023-02-10T00:11:07;100643.47;;;-1.63;91.08
22743;BME280;11538;48.884;8.696;2023-02-10T00:13:34;100641.13;;;-1.57;91.30
22743;BME280;11538;48.884;8.696;2023-02-10T00:16:03;100643.47;;;-1.63;91.23
22743;BME280;11538;48.884;8.696;2023-02-10T00:18:30;100640.84;;;-1.71;91.74
22743;BME280;11538;48.884;8.696;2023-02-10T00:21:05;100642.03;;;-1.73;92.54
22743;BME280;11538;48.884;8.696;2023-02-10T00:23:32;100637.19;;;-1.70;92.16
22743;BME280;11538;48.884;8.696;2023-02-10T00:26:03;100650.44;;;-1.62;91.74
22743;BME280;11538;48.884;8.696;2023-02-10T00:28:31;100640.78;;;-1.54;91.58
22743;BME280;11538;48.884;8.696;2023-02-10T00:30:58;100647.59;;;-1.52;90.97
22743;BME280;11538;48.884;8.696;2023-02-10T00:33:25;100649.09;;;-1.57;91.20
22743;BME280;11538;48.884;8.696;2023-02-10T00:35:51;100646.97;;;-1.62;91.34
22743;BME280;11538;48.884;8.696;2023-02-10T00:38:18;100657.94;;;-1.57;91.30
22743;BME280;11538;48.884;8.696;2023-02-10T00:40:45;100653.41;;;-1.56;91.30
22743;BME280;11538;48.884;8.696;2023-02-10T00:43:11;100656.28;;;-1.58;91.51
22743;BME280;11538;48.884;8.696;2023-02-10T00:45:38;100651.28;;;-1.61;91.58
22743;BME280;11538;48.884;8.696;2023-02-10T00:48:05;100654.78;;;-1.60;91.78
22743;BME280;11538;48.884;8.696;2023-02-10T00:50:31;100661.09;;;-1.62;91.81
22743;BME280;11538;48.884;8.696;2023-02-10T00:52:58;100656.31;;;-1.66;92.22
22743;BME280;11538;48.884;8.696;2023-02-10T00:55:25;100663.09;;;-1.64;92.23
22743;BME280;11538;48.884;8.696;2023-02-10T00:57:52;100647.16;;;-1.72;92.16
22743;BME280;11538;48.884;8.696;2023-02-10T01:00:18;100658.81;;;-1.73;92.54
22743;BME280;11538;48.884;8.696;2023-02-10T01:02:45;100660.97;;;-1.68;92.10
22743;BME280;11538;48.884;8.696;2023-02-10T01:05:12;100660.47;;;-1.72;92.53
22743;BME280;11538;48.884;8.696;2023-02-10T01:07:39;100657.81;;;-1.72;92.78
22743;BME280;11538;48.884;8.696;2023-02-10T01:10:06;100662.25;;;-1.56;92.09
22743;BME280;11538;48.884;8.696;2023-02-10T01:12:33;100663.06;;;-1.55;92.02
22743;BME280;11538;48.884;8.696;2023-02-10T01:14:59;100664.75;;;-1.63;92.35
22743;BME280;11538;48.884;8.696;2023-02-10T01:17:26;100658.16;;;-1.75;92.89
22743;BME280;11538;48.884;8.696;2023-02-10T01:19:53;100667.69;;;-1.81;92.94
22743;BME280;11538;48.884;8.696;2023-02-10T01:22:19;100674.03;;;-1.90;93.65
22743;BME280;11538;48.884;8.696;2023-02-10T01:24:46;100683.31;;;-1.86;93.65
22743;BME280;11538;48.884;8.696;2023-02-10T01:27:13;100681.13;;;-1.82;93.14
22743;BME280;11538;48.884;8.696;2023-02-10T01:29:40;100686.81;;;-1.94;94.04
22743;BME280;11538;48.884;8.696;2023-02-10T01:32:06;100676.03;;;-2.00;94.29
22743;BME280;11538;48.884;8.696;2023-02-10T01:34:33;100675.19;;;-1.93;93.91
22743;BME280;11538;48.884;8.696;2023-02-10T01:37:00;100682.66;;;-1.88;93.34
22743;BME280;11538;48.884;8.696;2023-02-10T01:39:29;100687.81;;;-1.95;93.73
22743;BME280;11538;48.884;8.696;2023-02-10T01:41:56;100690.47;;;-1.95;94.36
22743;BME280;11538;48.884;8.696;2023-02-10T01:46:54;100693.66;;;-1.91;93.95
22743;BME280;11538;48.884;8.696;2023-02-10T01:49:24;100688.66;;;-1.94;93.84
22743;BME280;11538;48.884;8.696;2023-02-10T01:52:00;100693.81;;;-1.93;93.80
22743;BME280;11538;48.884;8.696;2023-02-10T01:54:48;100698.97;;;-1.91;93.26
22743;BME280;11538;48.884;8.696;2023-02-10T01:57:16;100694.16;;;-2.04;93.79
22743;BME280;11538;48.884;8.696;2023-02-10T01:59:44;100698.63;;;-2.04;94.12
22743;BME280;11538;48.884;8.696;2023-02-10T02:02:12;100695.47;;;-2.00;94.35
22743;BME280;11538;48.884;8.696;2023-02-10T02:04:46;100702.47;;;-1.99;93.94
22743;BME280;11538;48.884;8.696;2023-02-10T02:07:15;100699.47;;;-2.04;94.08
22743;BME280;11538;48.884;8.696;2023-02-10T02:09:45;100699.97;;;-2.17;94.68
22743;BME280;11538;48.884;8.696;2023-02-10T02:17:47;100698.31;;;-2.10;94.51
22743;BME280;11538;48.884;8.696;2023-02-10T02:20:41;100710.13;;;-2.04;94.03
22743;BME280;11538;48.884;8.696;2023-02-10T02:23:39;100704.28;;;-2.08;94.03
22743;BME280;11538;48.884;8.696;2023-02-10T02:29:20;100708.47;;;-2.13;94.13
22743;BME280;11538;48.884;8.696;2023-02-10T02:37:17;100701.50;;;-2.31;95.28
22743;BME280;11538;48.884;8.696;2023-02-10T02:39:48;100705.50;;;-2.27;95.35
22743;BME280;11538;48.884;8.696;2023-02-10T02:42:27;100703.84;;;-2.28;94.91
22743;BME280;11538;48.884;8.696;2023-02-10T02:44:58;100706.16;;;-2.33;94.94
22743;BME280;11538;48.884;8.696;2023-02-10T03:01:22;100693.34;;;-2.38;94.64
22743;BME280;11538;48.884;8.696;2023-02-10T03:03:56;100702.53;;;-2.48;95.67
22743;BME280;11538;48.884;8.696;2023-02-10T03:06:24;100697.88;;;-2.38;95.58
22743;BME280;11538;48.884;8.696;2023-02-10T03:08:51;100705.16;;;-2.32;94.73
22743;BME280;11538;48.884;8.696;2023-02-10T03:11:18;100711.81;;;-2.36;94.71
22743;BME280;11538;48.884;8.696;2023-02-10T03:13:44;100716.81;;;-2.41;95.32
22743;BME280;11538;48.884;8.696;2023-02-10T03:16:11;100716.28;;;-2.37;94.85
22743;BME280;11538;48.884;8.696;2023-02-10T03:18:38;100712.16;;;-2.31;94.11
22743;BME280;11538;48.884;8.696;2023-02-10T03:21:05;100713.47;;;-2.35;94.38
22743;BME280;11538;48.884;8.696;2023-02-10T03:23:32;100718.78;;;-2.35;94.28
22743;BME280;11538;48.884;8.696;2023-02-10T03:25:59;100719.13;;;-2.38;94.70
22743;BME280;11538;48.884;8.696;2023-02-10T03:28:27;100716.28;;;-2.37;94.68
22743;BME280;11538;48.884;8.696;2023-02-10T03:30:54;100727.09;;;-2.46;95.28
22743;BME280;11538;48.884;8.696;2023-02-10T03:33:24;100726.09;;;-2.45;95.31
22743;BME280;11538;48.884;8.696;2023-02-10T03:35:51;100723.44;;;-2.45;95.07
22743;BME280;11538;48.884;8.696;2023-02-10T03:38:20;100731.41;;;-2.45;95.00
22743;BME280;11538;48.884;8.696;2023-02-10T03:40:51;100730.44;;;-2.44;95.22
22743;BME280;11538;48.884;8.696;2023-02-10T03:43:19;100735.06;;;-2.46;95.03
22743;BME280;11538;48.884;8.696;2023-02-10T03:45:46;100733.75;;;-2.42;95.22
22743;BME280;11538;48.884;8.696;2023-02-10T03:48:13;100739.41;;;-2.45;94.58
22743;BME280;11538;48.884;8.696;2023-02-10T03:50:42;100741.38;;;-2.47;94.47
22743;BME280;11538;48.884;8.696;2023-02-10T03:53:09;100739.22;;;-2.52;94.46
22743;BME280;11538;48.884;8.696;2023-02-10T03:55:36;100746.19;;;-2.59;94.79
22743;BME280;11538;48.884;8.696;2023-02-10T03:58:03;100747.31;;;-2.70;95.81
22743;BME280;11538;48.884;8.696;2023-02-10T04:00:30;100749.03;;;-2.61;95.31
22743;BME280;11538;48.884;8.696;2023-02-10T04:02:57;100750.47;;;-2.75;95.94
22743;BME280;11538;48.884;8.696;2023-02-10T04:05:24;100753.13;;;-2.83;96.29
22743;BME280;11538;48.884;8.696;2023-02-10T04:07:50;100749.59;;;-2.92;96.63
22743;BME280;11538;48.884;8.696;2023-02-10T04:10:17;100741.78;;;-3.02;97.62
22743;BME280;11538;48.884;8.696;2023-02-10T04:12:44;100746.63;;;-2.89;97.53
22743;BME280;11538;48.884;8.696;2023-02-10T04:15:11;100745.47;;;-2.86;97.25
22743;BME280;11538;48.884;8.696;2023-02-10T04:17:37;100749.44;;;-2.90;97.07
22743;BME280;11538;48.884;8.696;2023-02-10T04:20:05;100743.16;;;-2.89;97.06
22743;BME280;11538;48.884;8.696;2023-02-10T04:22:32;100746.78;;;-2.99;97.92
22743;BME280;11538;48.884;8.696;2023-02-10T04:24:58;100747.28;;;-2.87;97.56
22743;BME280;11538;48.884;8.696;2023-02-10T04:27:25;100755.13;;;-2.77;96.68
22743;BME280;11538;48.884;8.696;2023-02-10T04:29:52;100749.63;;;-2.75;96.47
22743;BME280;11538;48.884;8.696;2023-02-10T04:32:19;100753.44;;;-2.86;96.49
22743;BME280;11538;48.884;8.696;2023-02-10T04:34:45;100758.22;;;-2.90;97.02
22743;BME280;11538;48.884;8.696;2023-02-10T04:37:13;100751.94;;;-2.89;96.49
22743;BME280;11538;48.884;8.696;2023-02-10T04:39:39;100748.78;;;-2.92;97.03
22743;BME280;11538;48.884;8.696;2023-02-10T04:42:06;100748.94;;;-2.86;96.83
22743;BME280;11538;48.884;8.696;2023-02-10T04:44:33;100748.16;;;-2.78;96.15
22743;BME280;11538;48.884;8.696;2023-02-10T04:47:00;100742.84;;;-2.78;95.92
22743;BME280;11538;48.884;8.696;2023-02-10T04:49:27;100750.81;;;-2.78;95.73
22743;BME280;11538;48.884;8.696;2023-02-10T04:51:54;100749.97;;;-2.79;95.97
22743;BME280;11538;48.884;8.696;2023-02-10T04:54:21;100745.97;;;-2.83;96.25
22743;BME280;11538;48.884;8.696;2023-02-10T04:56:48;100759.56;;;-2.94;96.47
22743;BME280;11538;48.884;8.696;2023-02-10T04:59:15;100755.22;;;-2.95;97.29
22743;BME280;11538;48.884;8.696;2023-02-10T05:01:42;100754.09;;;-2.92;96.95
22743;BME280;11538;48.884;8.696;2023-02-10T05:04:08;100761.41;;;-2.86;96.81
22743;BME280;11538;48.884;8.696;2023-02-10T05:06:35;100768.53;;;-2.87;96.96
22743;BME280;11538;48.884;8.696;2023-02-10T05:09:02;100767.19;;;-2.91;97.22
22743;BME280;11538;48.884;8.696;2023-02-10T05:11:29;100769.84;;;-2.91;96.94
22743;BME280;11538;48.884;8.696;2023-02-10T05:13:55;100767.88;;;-2.89;96.83
22743;BME280;11538;48.884;8.696;2023-02-10T05:16:22;100772.84;;;-2.86;96.16
22743;BME280;11538;48.884;8.696;2023-02-10T05:18:49;100769.50;;;-2.96;96.27
22743;BME280;11538;48.884;8.696;2023-02-10T05:21:16;100768.03;;;-2.90;96.40
22743;BME280;11538;48.884;8.696;2023-02-10T05:23:43;100767.91;;;-2.72;95.44
22743;BME280;11538;48.884;8.696;2023-02-10T05:26:09;100761.44;;;-2.78;95.28
22743;BME280;11538;48.884;8.696;2023-02-10T05:28:36;100776.50;;;-2.87;95.80
22743;BME280;11538;48.884;8.696;2023-02-10T05:31:03;100770.53;;;-2.89;95.76
22743;BME280;11538;48.884;8.696;2023-02-10T05:33:33;100770.84;;;-2.92;96.01
22743;BME280;11538;48.884;8.696;2023-02-10T05:36:01;100775.00;;;-2.89;96.27
22743;BME280;11538;48.884;8.696;2023-02-10T05:38:28;100784.41;;;-3.03;96.89
22743;BME280;11538;48.884;8.696;2023-02-10T05:40:54;100779.81;;;-2.93;96.91
22743;BME280;11538;48.884;8.696;2023-02-10T05:43:21;100789.66;;;-2.77;95.74
22743;BME280;11538;48.884;8.696;2023-02-10T05:45:48;100787.31;;;-2.80;94.96
22743;BME280;11538;48.884;8.696;2023-02-10T05:48:15;100792.63;;;-2.88;95.61
22743;BME280;11538;48.884;8.696;2023-02-10T05:50:42;100794.75;;;-2.92;95.81
22743;BME280;11538;48.884;8.696;2023-02-10T05:53:09;100797.09;;;-2.89;95.62
22743;BME280;11538;48.884;8.696;2023-02-10T05:55:36;100801.22;;;-2.95;95.57
22743;BME280;11538;48.884;8.696;2023-02-10T05:58:03;100796.72;;;-2.94;95.68
22743;BME280;11538;48.884;8.696;2023-02-10T06:00:30;100804.38;;;-2.91;95.71
22743;BME280;11538;48.884;8.696;2023-02-10T06:02:58;100804.88;;;-2.96;96.04
22743;BME280;11538;48.884;8.696;2023-02-10T06:05:24;100816.66;;;-2.90;95.64
22743;BME280;11538;48.884;8.696;2023-02-10T06:07:51;100818.78;;;-3.02;96.22
22743;BME280;11538;48.884;8.696;2023-02-10T06:10:21;100818.59;;;-3.09;96.63
22743;BME280;11538;48.884;8.696;2023-02-10T06:12:49;100830.38;;;-3.11;96.46
22743;BME280;11538;48.884;8.696;2023-02-10T06:15:16;100823.91;;;-3.09;95.80
22743;BME280;11538;48.884;8.696;2023-02-10T06:17:43;100833.50;;;-3.16;95.98
22743;BME280;11538;48.884;8.696;2023-02-10T06:20:11;100838.97;;;-3.17;96.34
22743;BME280;11538;48.884;8.696;2023-02-10T06:22:38;100840.09;;;-3.20;96.41
22743;BME280;11538;48.884;8.696;2023-02-10T06:25:05;100847.25;;;-3.20;95.85
22743;BME280;11538;48.884;8.696;2023-02-10T06:27:32;100851.03;;;-3.23;95.68
22743;BME280;11538;48.884;8.696;2023-02-10T06:29:59;100863.50;;;-3.24;96.22
22743;BME280;11538;48.884;8.696;2023-02-10T06:32:25;100860.16;;;-3.26;96.20
22743;BME280;11538;48.884;8.696;2023-02-10T06:34:52;100856.31;;;-3.31;96.52
22743;BME280;11538;48.884;8.696;2023-02-10T06:37:19;100855.63;;;-3.33;97.10
22743;BME280;11538;48.884;8.696;2023-02-10T06:39:46;100858.81;;;-3.30;96.89
22743;BME280;11538;48.884;8.696;2023-02-10T06:42:12;100861.00;;;-3.25;96.49
22743;BME280;11538;48.884;8.696;2023-02-10T06:44:39;100869.13;;;-3.27;96.43
22743;BME280;11538;48.884;8.696;2023-02-10T06:47:06;100867.47;;;-3.28;96.08
22743;BME280;11538;48.884;8.696;2023-02-10T06:49:33;100872.75;;;-3.28;95.52
22743;BME280;11538;48.884;8.696;2023-02-10T06:52:00;100870.16;;;-3.46;96.00
22743;BME280;11538;48.884;8.696;2023-02-10T06:54:32;100877.13;;;-3.45;95.98
22743;BME280;11538;48.884;8.696;2023-02-10T06:56:59;100872.69;;;-3.36;95.63
22743;BME280;11538;48.884;8.696;2023-02-10T06:59:26;100875.66;;;-3.39;95.83
22743;BME280;11538;48.884;8.696;2023-02-10T07:01:52;100878.84;;;-3.35;95.63
22743;BME280;11538;48.884;8.696;2023-02-10T07:04:27;100876.09;;;-3.26;95.68
22743;BME280;11538;48.884;8.696;2023-02-10T07:06:55;100881.91;;;-3.22;94.53
22743;BME280;11538;48.884;8.696;2023-02-10T07:09:22;100873.91;;;-3.30;95.04
22743;BME280;11538;48.884;8.696;2023-02-10T07:11:50;100866.25;;;-3.33;95.36
22743;BME280;11538;48.884;8.696;2023-02-10T07:14:17;100871.25;;;-3.30;95.41
22743;BME280;11538;48.884;8.696;2023-02-10T07:16:44;100868.06;;;-3.34;95.55
22743;BME280;11538;48.884;8.696;2023-02-10T07:19:11;100871.38;;;-3.32;95.79
22743;BME280;11538;48.884;8.696;2023-02-10T07:21:38;100867.97;;;-3.24;95.78
22743;BME280;11538;48.884;8.696;2023-02-10T07:24:05;100871.28;;;-3.22;95.61
22743;BME280;11538;48.884;8.696;2023-02-10T07:26:32;100875.47;;;-3.19;95.43
22743;BME280;11538;48.884;8.696;2023-02-10T07:28:59;100875.16;;;-3.16;95.20
22743;BME280;11538;48.884;8.696;2023-02-10T07:31:26;100872.50;;;-3.16;95.23
22743;BME280;11538;48.884;8.696;2023-02-10T07:33:53;100879.63;;;-3.17;95.08
22743;BME280;11538;48.884;8.696;2023-02-10T07:36:20;100870.78;;;-3.26;95.96
22743;BME280;11538;48.884;8.696;2023-02-10T07:38:47;100878.44;;;-3.22;95.66
22743;BME280;11538;48.884;8.696;2023-02-10T07:41:14;100876.50;;;-3.12;95.01
22743;BME280;11538;48.884;8.696;2023-02-10T07:43:40;100871.69;;;-3.09;94.21
22743;BME280;11538;48.884;8.696;2023-02-10T07:46:07;100873.34;;;-3.08;94.45
22743;BME280;11538;48.884;8.696;2023-02-10T07:48:34;100873.22;;;-3.06;95.01
22743;BME280;11538;48.884;8.696;2023-02-10T07:51:01;100880.53;;;-3.00;94.00
22743;BME280;11538;48.884;8.696;2023-02-10T07:53:28;100863.13;;;-2.94;94.01
22743;BME280;11538;48.884;8.696;2023-02-10T07:55:58;100869.47;;;-2.87;94.04
22743;BME280;11538;48.884;8.696;2023-02-10T07:58:24;100865.81;;;-2.86;93.43
22743;BME280;11538;48.884;8.696;2023-02-10T08:00:51;100866.00;;;-2.87;94.46
22743;BME280;11538;48.884;8.696;2023-02-10T08:03:18;100868.31;;;-2.84;94.13
22743;BME280;11538;48.884;8.696;2023-02-10T08:05:45;100873.81;;;-2.77;93.89
22743;BME280;11538;48.884;8.696;2023-02-10T08:08:15;100876.78;;;-2.81;93.96
22743;BME280;11538;48.884;8.696;2023-02-10T08:10:42;100879.13;;;-2.77;94.21
22743;BME280;11538;48.884;8.696;2023-02-10T08:13:08;100871.19;;;-2.69;93.97
22743;BME280;11538;48.884;8.696;2023-02-10T08:15:35;100878.25;;;-2.52;93.42
22743;BME280;11538;48.884;8.696;2023-02-10T08:18:02;100876.94;;;-2.39;92.66
22743;BME280;11538;48.884;8.696;2023-02-10T08:20:29;100876.97;;;-2.23;91.97
22743;BME280;11538;48.884;8.696;2023-02-10T08:22:57;100882.47;;;-1.99;90.78
22743;BME280;11538;48.884;8.696;2023-02-10T08:25:26;100887.00;;;-1.83;89.18
22743;BME280;11538;48.884;8.696;2023-02-10T08:27:53;100879.00;;;-1.67;87.84
22743;BME280;11538;48.884;8.696;2023-02-10T08:30:20;100877.00;;;-1.56;87.39
22743;BME280;11538;48.884;8.696;2023-02-10T08:32:47;100883.63;;;-1.36;85.79
22743;BME280;11538;48.884;8.696;2023-02-10T08:35:16;100877.25;;;-1.10;85.02
22743;BME280;11538;48.884;8.696;2023-02-10T08:37:42;100889.00;;;-0.88;83.26
22743;BME280;11538;48.884;8.696;2023-02-10T08:40:09;100881.97;;;-0.80;82.59
22743;BME280;11538;48.884;8.696;2023-02-10T08:42:36;100887.59;;;-0.67;81.73
22743;BME280;11538;48.884;8.696;2023-02-10T08:45:03;100889.22;;;-0.57;81.37
22743;BME280;11538;48.884;8.696;2023-02-10T08:47:30;100880.88;;;-0.54;81.08
22743;BME280;11538;48.884;8.696;2023-02-10T08:49:57;100879.50;;;-0.42;80.75
22743;BME280;11538;48.884;8.696;2023-02-10T08:52:23;100871.34;;;-0.17;79.36
22743;BME280;11538;48.884;8.696;2023-02-10T08:54:50;100864.06;;;0.00;78.49
22743;BME280;11538;48.884;8.696;2023-02-10T08:57:17;100866.22;;;0.20;77.42
22743;BME280;11538;48.884;8.696;2023-02-10T08:59:45;100870.28;;;0.31;76.90
22743;BME280;11538;48.884;8.696;2023-02-10T09:02:12;100875.84;;;0.44;76.23
22743;BME280;11538;48.884;8.696;2023-02-10T09:04:40;100871.56;;;0.58;75.12
22743;BME280;11538;48.884;8.696;2023-02-10T09:07:07;100885.47;;;0.68;75.73
22743;BME280;11538;48.884;8.696;2023-02-10T09:09:40;100881.63;;;0.86;74.45
22743;BME280;11538;48.884;8.696;2023-02-10T09:12:08;100885.78;;;1.04;74.13
22743;BME280;11538;48.884;8.696;2023-02-10T09:14:41;100884.13;;;1.17;73.95
22743;BME280;11538;48.884;8.696;2023-02-10T09:17:08;100883.19;;;1.25;73.49
22743;BME280;11538;48.884;8.696;2023-02-10T09:19:35;100881.34;;;1.41;72.92
22743;BME280;11538;48.884;8.696;2023-02-10T09:22:04;100881.75;;;1.59;71.84
22743;BME280;11538;48.884;8.696;2023-02-10T09:24:31;100879.66;;;1.77;71.66
22743;BME280;11538;48.884;8.696;2023-02-10T09:26:59;100881.66;;;1.89;70.74
22743;BME280;11538;48.884;8.696;2023-02-10T09:29:28;100883.03;;;2.00;70.18
22743;BME280;11538;48.884;8.696;2023-02-10T09:31:55;100881.75;;;2.18;70.10
22743;BME280;11538;48.884;8.696;2023-02-10T09:34:23;100883.41;;;2.19;69.21
22743;BME280;11538;48.884;8.696;2023-02-10T09:36:50;100882.09;;;2.37;68.84
22743;BME280;11538;48.884;8.696;2023-02-10T09:39:18;100878.44;;;2.44;68.62
22743;BME280;11538;48.884;8.696;2023-02-10T09:41:52;100876.06;;;2.56;68.30
22743;BME280;11538;48.884;8.696;2023-02-10T09:44:23;100867.19;;;2.84;68.06
22743;BME280;11538;48.884;8.696;2023-02-10T09:47:20;100872.13;;;2.81;67.64
22743;BME280;11538;48.884;8.696;2023-02-10T09:55:16;100869.72;;;3.34;66.78
22743;BME280;11538;48.884;8.696;2023-02-10T09:57:54;100875.13;;;3.41;66.24
22743;BME280;11538;48.884;8.696;2023-02-10T10:00:33;100886.97;;;3.67;65.87
22743;BME280;11538;48.884;8.696;2023-02-10T10:03:05;100883.28;;;3.82;64.47
22743;BME280;11538;48.884;8.696;2023-02-10T10:05:45;100889.69;;;3.87;64.97
22743;BME280;11538;48.884;8.696;2023-02-10T10:08:22;100890.78;;;4.06;65.17
22743;BME280;11538;48.884;8.696;2023-02-10T10:10:51;100884.97;;;3.96;63.91
22743;BME280;11538;48.884;8.696;2023-02-10T10:13:23;100889.31;;;3.97;64.33
22743;BME280;11538;48.884;8.696;2023-02-10T10:19:01;100890.81;;;4.27;64.16
22743;BME280;11538;48.884;8.696;2023-02-10T10:21:36;100894.09;;;4.49;62.59
22743;BME280;11538;48.884;8.696;2023-02-10T10:24:23;100892.44;;;4.61;62.17
22743;BME280;11538;48.884;8.696;2023-02-10T10:32:40;100892.38;;;5.08;62.72
22743;BME280;11538;48.884;8.696;2023-02-10T10:35:38;100882.38;;;5.29;62.85
22743;BME280;11538;48.884;8.696;2023-02-10T10:38:22;100886.06;;;5.41;58.71
22743;BME280;11538;48.884;8.696;2023-02-10T10:40:52;100884.41;;;5.40;59.51
22743;BME280;11538;48.884;8.696;2023-02-10T10:43:26;100885.03;;;5.43;57.89
22743;BME280;11538;48.884;8.696;2023-02-10T10:46:06;100890.13;;;5.57;59.29
22743;BME280;11538;48.884;8.696;2023-02-10T10:48:40;100886.72;;;5.76;59.12
22743;BME280;11538;48.884;8.696;2023-02-10T10:51:08;100886.66;;;5.89;58.19
22743;BME280;11538;48.884;8.696;2023-02-10T10:53:50;100888.81;;;6.12;57.71
22743;BME280;11538;48.884;8.696;2023-02-10T10:58:47;100885.38;;;6.31;57.51
22743;BME280;11538;48.884;8.696;2023-02-10T11:01:16;100883.22;;;6.39;55.64
22743;BME280;11538;48.884;8.696;2023-02-10T11:03:43;100880.78;;;6.56;55.62
22743;BME280;11538;48.884;8.696;2023-02-10T11:06:15;100870.78;;;6.64;56.29
22743;BME280;11538;48.884;8.696;2023-02-10T11:08:56;100868.56;;;6.79;54.50
22743;BME280;11538;48.884;8.696;2023-02-10T11:11:40;100859.78;;;6.84;56.19
22743;BME280;11538;48.884;8.696;2023-02-10T11:14:21;100862.88;;;7.06;54.98
22743;BME280;11538;48.884;8.696;2023-02-10T11:16:50;100862.88;;;7.06;54.26
22743;BME280;11538;48.884;8.696;2023-02-10T11:19:27;100863.94;;;7.24;52.61
22743;BME280;11538;48.884;8.696;2023-02-10T11:22:15;100856.19;;;7.46;54.29
22743;BME280;11538;48.884;8.696;2023-02-10T11:24:52;100864.75;;;7.73;54.37
22743;BME280;11538;48.884;8.696;2023-02-10T11:27:19;100870.13;;;8.04;54.03
22743;BME280;11538;48.884;8.696;2023-02-10T11:29:57;100866.88;;;8.14;49.68
22743;BME280;11538;48.884;8.696;2023-02-10T11:32:35;100874.84;;;8.09;51.58
22743;BME280;11538;48.884;8.696;2023-02-10T11:35:06;100860.78;;;8.30;50.78
22743;BME280;11538;48.884;8.696;2023-02-10T11:37:41;100870.91;;;8.47;51.08
22743;BME280;11538;48.884;8.696;2023-02-10T11:40:23;100861.75;;;8.60;50.01
22743;BME280;11538;48.884;8.696;2023-02-10T11:42:52;100863.00;;;8.45;48.77
22743;BME280;11538;48.884;8.696;2023-02-10T11:48:18;100864.94;;;8.92;48.58
22743;BME280;11538;48.884;8.696;2023-02-10T11:50:45;100860.75;;;9.26;47.42
22743;BME280;11538;48.884;8.696;2023-02-10T11:53:22;100866.13;;;9.38;46.57
22743;BME280;11538;48.884;8.696;2023-02-10T11:56:19;100861.47;;;9.33;46.91
22743;BME280;11538;48.884;8.696;2023-02-10T12:07:15;100854.19;;;9.79;43.71
22743;BME280;11538;48.884;8.696;2023-02-10T12:10:08;100850.47;;;9.98;43.23
22743;BME280;11538;48.884;8.696;2023-02-10T12:12:57;100839.94;;;10.01;42.71
22743;BME280;11538;48.884;8.696;2023-02-10T12:18:38;100827.94;;;10.31;42.48
22743;BME280;11538;48.884;8.696;2023-02-10T12:24:05;100827.94;;;10.65;40.99
22743;BME280;11538;48.884;8.696;2023-02-10T12:26:57;100823.69;;;10.52;41.13
22743;BME280;11538;48.884;8.696;2023-02-10T12:30:28;100819.97;;;10.59;40.71
22743;BME280;11538;48.884;8.696;2023-02-10T12:38:29;100821.50;;;10.72;39.43
22743;BME280;11538;48.884;8.696;2023-02-10T12:46:57;100819.94;;;10.98;38.14
22743;BME280;11538;48.884;8.696;2023-02-10T12:49:44;100820.06;;;11.08;37.67
22743;BME280;11538;48.884;8.696;2023-02-10T12:52:24;100818.94;;;11.04;37.30
22743;BME280;11538;48.884;8.696;2023-02-10T12:57:37;100805.16;;;10.89;37.06
22743;BME280;11538;48.884;8.696;2023-02-10T13:00:08;100807.75;;;10.78;37.32
22743;BME280;11538;48.884;8.696;2023-02-10T13:02:48;100808.28;;;10.97;37.56
22743;BME280;11538;48.884;8.696;2023-02-10T13:05:24;100804.44;;;11.21;36.61
22743;BME280;11538;48.884;8.696;2023-02-10T13:08:00;100797.75;;;11.29;36.15
22743;BME280;11538;48.884;8.696;2023-02-10T13:10:40;100799.16;;;11.31;35.96
22743;BME280;11538;48.884;8.696;2023-02-10T13:13:18;100800.53;;;11.34;36.77
22743;BME280;11538;48.884;8.696;2023-02-10T13:15:53;100796.19;;;11.33;36.67
22743;BME280;11538;48.884;8.696;2023-02-10T13:18:28;100806.06;;;11.44;36.02
22743;BME280;11538;48.884;8.696;2023-02-10T13:23:50;100804.94;;;11.40;35.75
22743;BME280;11538;48.884;8.696;2023-02-10T13:26:28;100802.38;;;11.28;36.28
22743;BME280;11538;48.884;8.696;2023-02-10T13:29:20;100798.78;;;10.78;36.54
22743;BME280;11538;48.884;8.696;2023-02-10T13:34:23;100803.78;;;9.95;38.63
22743;BME280;11538;48.884;8.696;2023-02-10T13:39:27;100795.47;;;10.53;37.38
22743;BME280;11538;48.884;8.696;2023-02-10T13:42:20;100796.72;;;10.85;36.95
22743;BME280;11538;48.884;8.696;2023-02-10T13:47:39;100807.47;;;10.06;37.77
22743;BME280;11538;48.884;8.696;2023-02-10T13:50:20;100808.88;;;10.26;37.97
22743;BME280;11538;48.884;8.696;2023-02-10T13:53:00;100816.25;;;10.65;37.37
22743;BME280;11538;48.884;8.696;2023-02-10T14:00:42;100815.13;;;11.05;38.39
22743;BME280;11538;48.884;8.696;2023-02-10T14:06:31;100808.56;;;11.01;38.84
22743;BME280;11538;48.884;8.696;2023-02-10T14:08:29;100803.09;;;10.74;39.25
22743;BME280;11538;48.884;8.696;2023-02-10T14:13:59;100800.50;;;10.10;38.79
22743;BME280;11538;48.884;8.696;2023-02-10T14:16:36;100809.31;;;9.55;38.69
22743;BME280;11538;48.884;8.696;2023-02-10T14:19:22;100799.09;;;8.63;40.11
22743;BME280;11538;48.884;8.696;2023-02-10T14:21:49;100798.34;;;8.32;41.13
22743;BME280;11538;48.884;8.696;2023-02-10T14:24:27;100806.44;;;8.08;41.73
22743;BME280;11538;48.884;8.696;2023-02-10T14:27:13;100808.38;;;7.89;42.30
22743;BME280;11538;48.884;8.696;2023-02-10T14:29:46;100803.56;;;7.91;42.15
22743;BME280;11538;48.884;8.696;2023-02-10T14:32:17;100806.16;;;7.86;42.41
22743;BME280;11538;48.884;8.696;2023-02-10T14:34:57;100801.53;;;7.74;42.12
22743;BME280;11538;48.884;8.696;2023-02-10T14:37:25;100801.75;;;7.61;42.15
22743;BME280;11538;48.884;8.696;2023-02-10T14:39:54;100802.66;;;7.55;43.22
22743;BME280;11538;48.884;8.696;2023-02-10T14:42:22;100795.47;;;7.49;43.32
22743;BME280;11538;48.884;8.696;2023-02-10T14:44:52;100801.13;;;7.47;43.16
22743;BME280;11538;48.884;8.696;2023-02-10T14:47:22;100804.50;;;7.42;43.57
22743;BME280;11538;48.884;8.696;2023-02-10T14:49:51;100797.56;;;7.35;43.14